sensor_id;sensor_type;location;lat;lon;timestamp;temperature;humidity
23251;DHT22;11794;49.730;10.088;2023-11-21T00:01:45;8.00;99.90
23251;DHT22;11794;49.730;10.088;2023-11-21T00:04:11;8.00;99.90
23251;DHT22;11794;49.730;10.088;2023-11-21T00:06:36;8.00;99.90
23251;DHT22;11794;49.730;10.088;2023-11-21T00:09:02;8.00;99.90
23251;DHT22;11794;49.730;10.088;2023-11-21T00:11:28;8.00;99.90
23251;DHT22;11794;49.730;10.088;2023-11-21T00:13:54;8.00;99.90
23251;DHT22;11794;49.730;10.088;2023-11-21T00:16:20;8.00;99.90
23251;DHT22;11794;49.730;10.088;2023-11-21T00:18:45;8.00;99.90
23251;DHT22;11794;49.730;10.088;2023-11-21T00:21:12;8.00;99.90
23251;DHT22;11794;49.730;10.088;2023-11-21T00:23:38;8.00;99.90
23251;DHT22;11794;49.730;10.088;2023-11-21T00:26:03;7.90;99.90
23251;DHT22;11794;49.730;10.088;2023-11-21T00:28:29;7.90;99.90
23251;DHT22;11794;49.730;10.088;2023-11-21T00:30:55;7.90;99.90
23251;DHT22;11794;49.730;10.088;2023-11-21T00:33:20;7.90;99.90
23251;DHT22;11794;49.730;10.088;2023-11-21T00:35:46;7.90;99.90
23251;DHT22;11794;49.730;10.088;2023-11-21T00:38:12;7.90;99.90
23251;DHT22;11794;49.730;10.088;2023-11-21T00:40:37;7.90;99.90
23251;DHT22;11794;49.730;10.088;2023-11-21T00:43:03;7.90;99.90
23251;DHT22;11794;49.730;10.088;2023-11-21T00:45:28;7.90;99.90
23251;DHT22;11794;49.730;10.088;2023-11-21T00:47:54;7.90;99.90
23251;DHT22;11794;49.730;10.088;2023-11-21T00:50:19;7.90;99.90
23251;DHT22;11794;49.730;10.088;2023-11-21T00:52:45;7.90;99.90
23251;DHT22;11794;49.730;10.088;2023-11-21T00:55:10;8.00;99.90
23251;DHT22;11794;49.730;10.088;2023-11-21T00:57:37;8.00;99.90
23251;DHT22;11794;49.730;10.088;2023-11-21T01:00:03;8.00;99.90
23251;DHT22;11794;49.730;10.088;2023-11-21T01:02:32;8.00;99.90
23251;DHT22;11794;49.730;10.088;2023-11-21T01:04:58;8.10;99.90
23251;DHT22;11794;49.730;10.088;2023-11-21T01:07:23;8.10;99.90
23251;DHT22;11794;49.730;10.088;2023-11-21T01:09:49;8.10;99.90
23251;DHT22;11794;49.730;10.088;2023-11-21T01:12:15;8.00;99.90
23251;DHT22;11794;49.730;10.088;2023-11-21T01:14:41;8.00;99.90
23251;DHT22;11794;49.730;10.088;2023-11-21T01:17:06;8.00;99.90
23251;DHT22;11794;49.730;10.088;2023-11-21T01:19:32;8.00;99.90
23251;DHT22;11794;49.730;10.088;2023-11-21T01:21:57;8.00;99.90
23251;DHT22;11794;49.730;10.088;2023-11-21T01:24:23;8.00;99.90
23251;DHT22;11794;49.730;10.088;2023-11-21T01:26:49;8.00;99.90
23251;DHT22;11794;49.730;10.088;2023-11-21T01:29:14;8.00;99.90
23251;DHT22;11794;49.730;10.088;2023-11-21T01:31:40;8.00;99.90
23251;DHT22;11794;49.730;10.088;2023-11-21T01:34:06;7.90;99.90
23251;DHT22;11794;49.730;10.088;2023-11-21T01:36:32;8.00;99.90
23251;DHT22;11794;49.730;10.088;2023-11-21T01:38:59;8.00;99.90
23251;DHT22;11794;49.730;10.088;2023-11-21T01:41:28;8.00;99.90
23251;DHT22;11794;49.730;10.088;2023-11-21T01:43:55;8.00;99.90
23251;DHT22;11794;49.730;10.088;2023-11-21T01:46:21;8.00;99.90
23251;DHT22;11794;49.730;10.088;2023-11-21T01:48:48;8.00;99.90
23251;DHT22;11794;49.730;10.088;2023-11-21T01:51:15;8.00;99.90
23251;DHT22;11794;49.730;10.088;2023-11-21T01:53:40;8.00;99.90
23251;DHT22;11794;49.730;10.088;2023-11-21T01:56:06;8.00;99.90
23251;DHT22;11794;49.730;10.088;2023-11-21T01:58:33;7.90;99.90
23251;DHT22;11794;49.730;10.088;2023-11-21T02:00:59;7.90;99.90
23251;DHT22;11794;49.730;10.088;2023-11-21T02:03:24;8.00;99.90
23251;DHT22;11794;49.730;10.088;2023-11-21T02:05:54;8.00;99.90
23251;DHT22;11794;49.730;10.088;2023-11-21T02:08:20;8.00;99.90
23251;DHT22;11794;49.730;10.088;2023-11-21T02:10:45;8.00;99.90
23251;DHT22;11794;49.730;10.088;2023-11-21T02:13:11;8.00;99.90
23251;DHT22;11794;49.730;10.088;2023-11-21T02:15:37;8.00;99.90
23251;DHT22;11794;49.730;10.088;2023-11-21T02:18:04;8.00;99.90
23251;DHT22;11794;49.730;10.088;2023-11-21T02:20:32;8.00;99.90
23251;DHT22;11794;49.730;10.088;2023-11-21T02:23:00;8.00;99.90
23251;DHT22;11794;49.730;10.088;2023-11-21T02:25:29;8.00;99.90
23251;DHT22;11794;49.730;10.088;2023-11-21T02:27:56;8.00;99.90
23251;DHT22;11794;49.730;10.088;2023-11-21T02:30:22;8.00;99.90
23251;DHT22;11794;49.730;10.088;2023-11-21T02:32:48;8.00;99.90
23251;DHT22;11794;49.730;10.088;2023-11-21T02:35:14;7.90;99.90
23251;DHT22;11794;49.730;10.088;2023-11-21T02:37:41;7.90;99.90
23251;DHT22;11794;49.730;10.088;2023-11-21T02:40:09;7.80;99.90
23251;DHT22;11794;49.730;10.088;2023-11-21T02:42:35;7.90;99.90
23251;DHT22;11794;49.730;10.088;2023-11-21T02:45:00;7.90;99.90
23251;DHT22;11794;49.730;10.088;2023-11-21T02:47:26;7.80;99.90
23251;DHT22;11794;49.730;10.088;2023-11-21T02:49:52;7.80;99.90
23251;DHT22;11794;49.730;10.088;2023-11-21T02:52:18;7.80;99.90
23251;DHT22;11794;49.730;10.088;2023-11-21T02:54:44;7.80;99.90
23251;DHT22;11794;49.730;10.088;2023-11-21T02:57:10;7.80;99.90
23251;DHT22;11794;49.730;10.088;2023-11-21T02:59:35;7.70;99.90
23251;DHT22;11794;49.730;10.088;2023-11-21T03:02:01;7.70;99.90
23251;DHT22;11794;49.730;10.088;2023-11-21T03:04:26;7.60;99.90
23251;DHT22;11794;49.730;10.088;2023-11-21T03:06:52;7.70;99.90
23251;DHT22;11794;49.730;10.088;2023-11-21T03:09:17;7.60;99.90
23251;DHT22;11794;49.730;10.088;2023-11-21T03:11:43;7.60;99.90
23251;DHT22;11794;49.730;10.088;2023-11-21T03:14:08;7.60;99.90
23251;DHT22;11794;49.730;10.088;2023-11-21T03:16:34;7.60;99.90
23251;DHT22;11794;49.730;10.088;2023-11-21T03:19:00;7.50;99.90
23251;DHT22;11794;49.730;10.088;2023-11-21T03:21:25;7.50;99.90
23251;DHT22;11794;49.730;10.088;2023-11-21T03:23:51;7.50;99.90
23251;DHT22;11794;49.730;10.088;2023-11-21T03:26:17;7.50;99.90
23251;DHT22;11794;49.730;10.088;2023-11-21T03:28:43;7.60;99.90
23251;DHT22;11794;49.730;10.088;2023-11-21T03:31:08;7.60;99.90
23251;DHT22;11794;49.730;10.088;2023-11-21T03:33:35;7.60;99.90
23251;DHT22;11794;49.730;10.088;2023-11-21T03:36:00;7.70;99.90
23251;DHT22;11794;49.730;10.088;2023-11-21T03:38:26;7.70;99.90
23251;DHT22;11794;49.730;10.088;2023-11-21T03:40:51;7.60;99.90
23251;DHT22;11794;49.730;10.088;2023-11-21T03:43:17;7.70;99.90
23251;DHT22;11794;49.730;10.088;2023-11-21T03:45:42;7.70;99.90
23251;DHT22;11794;49.730;10.088;2023-11-21T03:48:08;7.60;99.90
23251;DHT22;11794;49.730;10.088;2023-11-21T03:50:34;7.70;99.90
23251;DHT22;11794;49.730;10.088;2023-11-21T03:53:00;7.70;99.90
23251;DHT22;11794;49.730;10.088;2023-11-21T03:55:26;7.70;99.90
23251;DHT22;11794;49.730;10.088;2023-11-21T03:57:52;7.60;99.90
23251;DHT22;11794;49.730;10.088;2023-11-21T04:00:18;7.70;99.90
23251;DHT22;11794;49.730;10.088;2023-11-21T04:02:45;7.70;99.90
23251;DHT22;11794;49.730;10.088;2023-11-21T04:05:11;7.70;99.90
23251;DHT22;11794;49.730;10.088;2023-11-21T04:07:37;7.70;99.90
23251;DHT22;11794;49.730;10.088;2023-11-21T04:10:05;7.70;99.90
23251;DHT22;11794;49.730;10.088;2023-11-21T04:12:33;7.70;99.90
23251;DHT22;11794;49.730;10.088;2023-11-21T04:14:58;7.70;99.90
23251;DHT22;11794;49.730;10.088;2023-11-21T04:17:24;7.70;99.90
23251;DHT22;11794;49.730;10.088;2023-11-21T04:19:49;7.80;99.90
23251;DHT22;11794;49.730;10.088;2023-11-21T04:22:15;7.70;99.90
23251;DHT22;11794;49.730;10.088;2023-11-21T04:24:40;7.70;99.90
23251;DHT22;11794;49.730;10.088;2023-11-21T04:27:06;7.70;99.90
23251;DHT22;11794;49.730;10.088;2023-11-21T04:29:31;7.60;99.90
23251;DHT22;11794;49.730;10.088;2023-11-21T04:31:57;7.70;99.90
23251;DHT22;11794;49.730;10.088;2023-11-21T04:34:23;7.70;99.90
23251;DHT22;11794;49.730;10.088;2023-11-21T04:36:49;7.70;99.90
23251;DHT22;11794;49.730;10.088;2023-11-21T04:39:15;7.70;99.90
23251;DHT22;11794;49.730;10.088;2023-11-21T04:41:41;7.60;99.90
23251;DHT22;11794;49.730;10.088;2023-11-21T04:44:06;7.60;99.90
23251;DHT22;11794;49.730;10.088;2023-11-21T04:46:32;7.70;99.90
23251;DHT22;11794;49.730;10.088;2023-11-21T04:48:58;7.70;99.90
23251;DHT22;11794;49.730;10.088;2023-11-21T04:51:24;7.70;99.90
23251;DHT22;11794;49.730;10.088;2023-11-21T04:53:49;7.70;99.90
23251;DHT22;11794;49.730;10.088;2023-11-21T04:56:15;7.70;99.90
23251;DHT22;11794;49.730;10.088;2023-11-21T04:58:41;7.70;99.90
23251;DHT22;11794;49.730;10.088;2023-11-21T05:01:07;7.60;99.90
23251;DHT22;11794;49.730;10.088;2023-11-21T05:03:33;7.60;99.90
23251;DHT22;11794;49.730;10.088;2023-11-21T05:05:59;7.70;99.90
23251;DHT22;11794;49.730;10.088;2023-11-21T05:08:25;7.60;99.90
23251;DHT22;11794;49.730;10.088;2023-11-21T05:10:51;7.70;99.90
23251;DHT22;11794;49.730;10.088;2023-11-21T05:13:17;7.60;99.90
23251;DHT22;11794;49.730;10.088;2023-11-21T05:15:44;7.60;99.90
23251;DHT22;11794;49.730;10.088;2023-11-21T05:18:09;7.50;99.90
23251;DHT22;11794;49.730;10.088;2023-11-21T05:20:36;7.50;99.90
23251;DHT22;11794;49.730;10.088;2023-11-21T05:23:02;7.50;99.90
23251;DHT22;11794;49.730;10.088;2023-11-21T05:25:27;7.50;99.90
23251;DHT22;11794;49.730;10.088;2023-11-21T05:27:53;7.40;99.90
23251;DHT22;11794;49.730;10.088;2023-11-21T05:30:24;7.30;99.90
23251;DHT22;11794;49.730;10.088;2023-11-21T05:32:50;7.30;99.90
23251;DHT22;11794;49.730;10.088;2023-11-21T05:35:15;7.40;99.90
23251;DHT22;11794;49.730;10.088;2023-11-21T05:37:42;7.40;99.90
23251;DHT22;11794;49.730;10.088;2023-11-21T05:40:08;7.40;99.90
23251;DHT22;11794;49.730;10.088;2023-11-21T05:42:35;7.40;99.90
23251;DHT22;11794;49.730;10.088;2023-11-21T05:45:01;7.40;99.90
23251;DHT22;11794;49.730;10.088;2023-11-21T05:47:44;7.40;99.90
23251;DHT22;11794;49.730;10.088;2023-11-21T05:50:15;7.40;99.90
23251;DHT22;11794;49.730;10.088;2023-11-21T05:52:42;7.40;99.90
23251;DHT22;11794;49.730;10.088;2023-11-21T05:55:08;7.40;99.90
23251;DHT22;11794;49.730;10.088;2023-11-21T05:57:38;7.40;99.90
23251;DHT22;11794;49.730;10.088;2023-11-21T06:00:04;7.50;99.90
23251;DHT22;11794;49.730;10.088;2023-11-21T06:02:51;7.40;99.90
23251;DHT22;11794;49.730;10.088;2023-11-21T06:05:22;7.50;99.90
23251;DHT22;11794;49.730;10.088;2023-11-21T06:07:52;7.40;99.90
23251;DHT22;11794;49.730;10.088;2023-11-21T06:10:19;7.40;99.90
23251;DHT22;11794;49.730;10.088;2023-11-21T06:12:45;7.40;99.90
23251;DHT22;11794;49.730;10.088;2023-11-21T06:15:11;7.50;99.90
23251;DHT22;11794;49.730;10.088;2023-11-21T06:17:40;7.50;99.90
23251;DHT22;11794;49.730;10.088;2023-11-21T06:20:08;7.50;99.90
23251;DHT22;11794;49.730;10.088;2023-11-21T06:22:40;7.60;99.90
23251;DHT22;11794;49.730;10.088;2023-11-21T06:25:06;7.60;99.90
23251;DHT22;11794;49.730;10.088;2023-11-21T06:27:33;7.60;99.90
23251;DHT22;11794;49.730;10.088;2023-11-21T06:29:59;7.60;99.90
23251;DHT22;11794;49.730;10.088;2023-11-21T06:32:25;7.60;99.90
23251;DHT22;11794;49.730;10.088;2023-11-21T06:34:51;7.50;99.90
23251;DHT22;11794;49.730;10.088;2023-11-21T06:37:20;7.50;99.90
23251;DHT22;11794;49.730;10.088;2023-11-21T06:39:48;7.40;99.90
23251;DHT22;11794;49.730;10.088;2023-11-21T06:42:14;7.40;99.90
23251;DHT22;11794;49.730;10.088;2023-11-21T06:44:40;7.50;99.90
23251;DHT22;11794;49.730;10.088;2023-11-21T06:47:06;7.40;99.90
23251;DHT22;11794;49.730;10.088;2023-11-21T06:49:32;7.40;99.90
23251;DHT22;11794;49.730;10.088;2023-11-21T06:51:58;7.40;99.90
23251;DHT22;11794;49.730;10.088;2023-11-21T06:54:24;7.50;99.90
23251;DHT22;11794;49.730;10.088;2023-11-21T06:56:50;7.50;99.90
23251;DHT22;11794;49.730;10.088;2023-11-21T06:59:15;7.50;99.90
23251;DHT22;11794;49.730;10.088;2023-11-21T07:01:41;7.60;99.90
23251;DHT22;11794;49.730;10.088;2023-11-21T07:04:07;7.60;99.90
23251;DHT22;11794;49.730;10.088;2023-11-21T07:06:33;7.60;99.90
23251;DHT22;11794;49.730;10.088;2023-11-21T07:08:58;7.60;99.90
23251;DHT22;11794;49.730;10.088;2023-11-21T07:11:25;7.60;99.90
23251;DHT22;11794;49.730;10.088;2023-11-21T07:13:51;7.70;99.90
23251;DHT22;11794;49.730;10.088;2023-11-21T07:16:17;7.70;99.90
23251;DHT22;11794;49.730;10.088;2023-11-21T07:18:44;7.70;99.90
23251;DHT22;11794;49.730;10.088;2023-11-21T07:21:09;7.70;99.90
23251;DHT22;11794;49.730;10.088;2023-11-21T07:23:37;7.80;99.90
23251;DHT22;11794;49.730;10.088;2023-11-21T07:26:03;7.80;99.90
23251;DHT22;11794;49.730;10.088;2023-11-21T07:28:29;7.90;99.90
23251;DHT22;11794;49.730;10.088;2023-11-21T07:30:55;7.90;99.90
23251;DHT22;11794;49.730;10.088;2023-11-21T07:33:21;8.00;99.90
23251;DHT22;11794;49.730;10.088;2023-11-21T07:35:47;8.00;99.90
23251;DHT22;11794;49.730;10.088;2023-11-21T07:38:13;8.00;99.90
23251;DHT22;11794;49.730;10.088;2023-11-21T07:40:39;8.10;99.90
23251;DHT22;11794;49.730;10.088;2023-11-21T07:43:04;8.20;99.90
23251;DHT22;11794;49.730;10.088;2023-11-21T07:45:31;8.20;99.90
23251;DHT22;11794;49.730;10.088;2023-11-21T07:47:56;8.20;99.90
23251;DHT22;11794;49.730;10.088;2023-11-21T07:50:22;8.30;99.90
23251;DHT22;11794;49.730;10.088;2023-11-21T07:52:48;8.30;99.90
23251;DHT22;11794;49.730;10.088;2023-11-21T07:55:15;8.40;99.90
23251;DHT22;11794;49.730;10.088;2023-11-21T07:57:40;8.40;99.90
23251;DHT22;11794;49.730;10.088;2023-11-21T08:00:07;8.40;99.90
23251;DHT22;11794;49.730;10.088;2023-11-21T08:02:34;8.40;99.90
23251;DHT22;11794;49.730;10.088;2023-11-21T08:05:00;8.50;99.90
23251;DHT22;11794;49.730;10.088;2023-11-21T08:07:26;8.60;99.90
23251;DHT22;11794;49.730;10.088;2023-11-21T08:09:51;8.70;99.90
23251;DHT22;11794;49.730;10.088;2023-11-21T08:12:18;8.70;99.90
23251;DHT22;11794;49.730;10.088;2023-11-21T08:14:45;8.80;99.90
23251;DHT22;11794;49.730;10.088;2023-11-21T08:17:10;8.80;99.90
23251;DHT22;11794;49.730;10.088;2023-11-21T08:19:36;8.70;99.90
23251;DHT22;11794;49.730;10.088;2023-11-21T08:22:03;8.60;99.90
23251;DHT22;11794;49.730;10.088;2023-11-21T08:24:28;8.60;99.90
23251;DHT22;11794;49.730;10.088;2023-11-21T08:26:54;8.60;99.90
23251;DHT22;11794;49.730;10.088;2023-11-21T08:29:20;8.70;99.90
23251;DHT22;11794;49.730;10.088;2023-11-21T08:31:45;8.70;99.90
23251;DHT22;11794;49.730;10.088;2023-11-21T08:34:12;8.80;99.90
23251;DHT22;11794;49.730;10.088;2023-11-21T08:36:43;8.80;99.90
23251;DHT22;11794;49.730;10.088;2023-11-21T08:39:08;8.90;99.90
23251;DHT22;11794;49.730;10.088;2023-11-21T08:41:35;9.00;99.90
23251;DHT22;11794;49.730;10.088;2023-11-21T08:44:02;9.00;99.90
23251;DHT22;11794;49.730;10.088;2023-11-21T08:46:32;9.00;99.90
23251;DHT22;11794;49.730;10.088;2023-11-21T08:49:00;9.00;99.90
23251;DHT22;11794;49.730;10.088;2023-11-21T08:51:26;8.90;99.90
23251;DHT22;11794;49.730;10.088;2023-11-21T08:53:51;8.90;99.90
23251;DHT22;11794;49.730;10.088;2023-11-21T08:56:18;8.90;99.90
23251;DHT22;11794;49.730;10.088;2023-11-21T08:58:45;8.90;99.90
23251;DHT22;11794;49.730;10.088;2023-11-21T09:01:12;8.90;99.90
23251;DHT22;11794;49.730;10.088;2023-11-21T09:03:38;8.90;99.90
23251;DHT22;11794;49.730;10.088;2023-11-21T09:06:03;8.90;99.90
23251;DHT22;11794;49.730;10.088;2023-11-21T09:08:29;8.90;99.90
23251;DHT22;11794;49.730;10.088;2023-11-21T09:10:55;8.90;99.90
23251;DHT22;11794;49.730;10.088;2023-11-21T09:13:21;8.90;99.90
23251;DHT22;11794;49.730;10.088;2023-11-21T09:15:46;8.90;99.90
23251;DHT22;11794;49.730;10.088;2023-11-21T09:18:15;9.10;99.90
23251;DHT22;11794;49.730;10.088;2023-11-21T09:20:41;9.10;99.90
23251;DHT22;11794;49.730;10.088;2023-11-21T09:23:09;9.10;99.90
23251;DHT22;11794;49.730;10.088;2023-11-21T09:25:35;9.20;99.90
23251;DHT22;11794;49.730;10.088;2023-11-21T09:28:03;9.30;99.90
23251;DHT22;11794;49.730;10.088;2023-11-21T09:30:33;9.40;99.90
23251;DHT22;11794;49.730;10.088;2023-11-21T09:32:59;9.50;99.90
23251;DHT22;11794;49.730;10.088;2023-11-21T09:35:25;9.60;99.90
23251;DHT22;11794;49.730;10.088;2023-11-21T09:37:51;9.50;99.90
23251;DHT22;11794;49.730;10.088;2023-11-21T09:40:21;9.40;99.90
23251;DHT22;11794;49.730;10.088;2023-11-21T09:42:54;9.30;99.90
23251;DHT22;11794;49.730;10.088;2023-11-21T09:45:28;9.30;99.90
23251;DHT22;11794;49.730;10.088;2023-11-21T09:47:55;9.40;99.90
23251;DHT22;11794;49.730;10.088;2023-11-21T09:50:22;9.50;99.90
23251;DHT22;11794;49.730;10.088;2023-11-21T09:55:34;9.70;99.90
23251;DHT22;11794;49.730;10.088;2023-11-21T09:58:02;9.90;99.90
23251;DHT22;11794;49.730;10.088;2023-11-21T10:00:30;10.20;99.90
23251;DHT22;11794;49.730;10.088;2023-11-21T10:02:59;10.50;99.90
23251;DHT22;11794;49.730;10.088;2023-11-21T10:05:25;11.00;99.90
23251;DHT22;11794;49.730;10.088;2023-11-21T10:07:51;11.20;99.90
23251;DHT22;11794;49.730;10.088;2023-11-21T10:10:19;11.30;99.90
23251;DHT22;11794;49.730;10.088;2023-11-21T10:12:56;11.20;99.90
23251;DHT22;11794;49.730;10.088;2023-11-21T10:15:23;11.10;99.90
23251;DHT22;11794;49.730;10.088;2023-11-21T10:17:50;11.10;99.90
23251;DHT22;11794;49.730;10.088;2023-11-21T10:20:22;11.10;99.90
23251;DHT22;11794;49.730;10.088;2023-11-21T10:22:49;11.00;99.90
23251;DHT22;11794;49.730;10.088;2023-11-21T10:25:15;10.90;99.90
23251;DHT22;11794;49.730;10.088;2023-11-21T10:27:42;11.00;99.90
23251;DHT22;11794;49.730;10.088;2023-11-21T10:30:09;11.00;99.90
23251;DHT22;11794;49.730;10.088;2023-11-21T10:32:38;10.90;99.90
23251;DHT22;11794;49.730;10.088;2023-11-21T10:35:06;10.80;99.90
23251;DHT22;11794;49.730;10.088;2023-11-21T10:37:39;10.70;99.90
23251;DHT22;11794;49.730;10.088;2023-11-21T10:40:10;10.70;99.90
23251;DHT22;11794;49.730;10.088;2023-11-21T10:42:39;10.80;99.90
23251;DHT22;11794;49.730;10.088;2023-11-21T10:45:05;10.80;99.90
23251;DHT22;11794;49.730;10.088;2023-11-21T10:47:41;10.80;99.90
23251;DHT22;11794;49.730;10.088;2023-11-21T10:50:07;10.80;99.90
23251;DHT22;11794;49.730;10.088;2023-11-21T10:52:37;10.70;99.90
23251;DHT22;11794;49.730;10.088;2023-11-21T10:55:19;10.50;99.90
23251;DHT22;11794;49.730;10.088;2023-11-21T10:57:48;10.30;99.90
23251;DHT22;11794;49.730;10.088;2023-11-21T11:00:16;10.10;99.90
23251;DHT22;11794;49.730;10.088;2023-11-21T11:02:42;10.00;99.90
23251;DHT22;11794;49.730;10.088;2023-11-21T11:05:08;10.00;99.90
23251;DHT22;11794;49.730;10.088;2023-11-21T11:07:37;10.00;99.90
23251;DHT22;11794;49.730;10.088;2023-11-21T11:10:06;10.00;99.90
23251;DHT22;11794;49.730;10.088;2023-11-21T11:12:34;10.10;99.90
23251;DHT22;11794;49.730;10.088;2023-11-21T11:15:01;10.10;99.90
23251;DHT22;11794;49.730;10.088;2023-11-21T11:17:28;10.20;99.90
23251;DHT22;11794;49.730;10.088;2023-11-21T11:19:54;10.30;99.90
23251;DHT22;11794;49.730;10.088;2023-11-21T11:28:15;10.20;99.90
23251;DHT22;11794;49.730;10.088;2023-11-21T11:33:45;10.40;99.90
23251;DHT22;11794;49.730;10.088;2023-11-21T11:36:26;10.50;99.90
23251;DHT22;11794;49.730;10.088;2023-11-21T11:38:53;10.50;99.90
23251;DHT22;11794;49.730;10.088;2023-11-21T11:41:30;10.50;99.90
23251;DHT22;11794;49.730;10.088;2023-11-21T11:43:59;10.50;99.90
23251;DHT22;11794;49.730;10.088;2023-11-21T11:46:42;10.60;99.90
23251;DHT22;11794;49.730;10.088;2023-11-21T11:49:08;10.60;99.90
23251;DHT22;11794;49.730;10.088;2023-11-21T11:51:34;10.60;99.90
23251;DHT22;11794;49.730;10.088;2023-11-21T11:54:01;10.70;99.90
23251;DHT22;11794;49.730;10.088;2023-11-21T11:56:31;10.60;99.90
23251;DHT22;11794;49.730;10.088;2023-11-21T11:59:00;10.50;99.90
23251;DHT22;11794;49.730;10.088;2023-11-21T12:01:28;10.50;99.90
23251;DHT22;11794;49.730;10.088;2023-11-21T12:06:51;10.60;99.90
23251;DHT22;11794;49.730;10.088;2023-11-21T12:09:22;10.60;99.90
23251;DHT22;11794;49.730;10.088;2023-11-21T12:11:51;10.70;99.90
23251;DHT22;11794;49.730;10.088;2023-11-21T12:14:17;10.70;99.90
23251;DHT22;11794;49.730;10.088;2023-11-21T12:16:43;10.80;99.90
23251;DHT22;11794;49.730;10.088;2023-11-21T12:19:12;11.00;99.90
23251;DHT22;11794;49.730;10.088;2023-11-21T12:21:38;11.10;99.90
23251;DHT22;11794;49.730;10.088;2023-11-21T12:24:06;11.30;99.90
23251;DHT22;11794;49.730;10.088;2023-11-21T12:26:34;11.40;99.90
23251;DHT22;11794;49.730;10.088;2023-11-21T12:29:01;11.50;99.90
23251;DHT22;11794;49.730;10.088;2023-11-21T12:31:29;11.40;99.90
23251;DHT22;11794;49.730;10.088;2023-11-21T12:33:55;11.40;99.90
23251;DHT22;11794;49.730;10.088;2023-11-21T12:36:21;11.50;99.90
23251;DHT22;11794;49.730;10.088;2023-11-21T12:38:47;11.80;99.90
23251;DHT22;11794;49.730;10.088;2023-11-21T12:41:12;12.00;99.90
23251;DHT22;11794;49.730;10.088;2023-11-21T12:43:38;12.20;99.90
23251;DHT22;11794;49.730;10.088;2023-11-21T12:46:14;12.50;99.90
23251;DHT22;11794;49.730;10.088;2023-11-21T12:48:44;12.70;99.90
23251;DHT22;11794;49.730;10.088;2023-11-21T12:51:11;12.70;99.90
23251;DHT22;11794;49.730;10.088;2023-11-21T12:53:37;12.60;99.90
23251;DHT22;11794;49.730;10.088;2023-11-21T12:56:07;12.50;99.90
23251;DHT22;11794;49.730;10.088;2023-11-21T12:58:35;12.70;99.90
23251;DHT22;11794;49.730;10.088;2023-11-21T13:01:01;12.90;99.90
23251;DHT22;11794;49.730;10.088;2023-11-21T13:03:30;13.00;99.90
23251;DHT22;11794;49.730;10.088;2023-11-21T13:05:56;13.50;99.90
23251;DHT22;11794;49.730;10.088;2023-11-21T13:08:25;13.70;99.90
23251;DHT22;11794;49.730;10.088;2023-11-21T13:10:55;13.70;99.90
23251;DHT22;11794;49.730;10.088;2023-11-21T13:13:22;13.70;99.90
23251;DHT22;11794;49.730;10.088;2023-11-21T13:15:52;14.00;99.90
23251;DHT22;11794;49.730;10.088;2023-11-21T13:18:18;14.90;99.90
23251;DHT22;11794;49.730;10.088;2023-11-21T13:20:44;16.50;99.90
23251;DHT22;11794;49.730;10.088;2023-11-21T13:23:10;17.90;99.90
23251;DHT22;11794;49.730;10.088;2023-11-21T13:25:42;19.00;99.90
23251;DHT22;11794;49.730;10.088;2023-11-21T13:28:07;19.60;99.90
23251;DHT22;11794;49.730;10.088;2023-11-21T13:30:33;20.00;99.90
23251;DHT22;11794;49.730;10.088;2023-11-21T13:33:03;20.20;99.90
23251;DHT22;11794;49.730;10.088;2023-11-21T13:35:36;20.10;99.90
23251;DHT22;11794;49.730;10.088;2023-11-21T13:38:13;20.30;99.90
23251;DHT22;11794;49.730;10.088;2023-11-21T13:40:40;19.80;99.90
23251;DHT22;11794;49.730;10.088;2023-11-21T13:43:10;18.20;99.90
23251;DHT22;11794;49.730;10.088;2023-11-21T13:45:39;16.70;99.90
23251;DHT22;11794;49.730;10.088;2023-11-21T13:48:06;15.60;99.90
23251;DHT22;11794;49.730;10.088;2023-11-21T13:50:53;14.70;99.90
23251;DHT22;11794;49.730;10.088;2023-11-21T13:53:27;14.00;99.90
23251;DHT22;11794;49.730;10.088;2023-11-21T13:55:54;13.50;99.90
23251;DHT22;11794;49.730;10.088;2023-11-21T13:58:21;13.10;99.90
23251;DHT22;11794;49.730;10.088;2023-11-21T14:00:50;12.60;99.90
23251;DHT22;11794;49.730;10.088;2023-11-21T14:03:24;12.40;99.90
23251;DHT22;11794;49.730;10.088;2023-11-21T14:05:58;12.10;99.90
23251;DHT22;11794;49.730;10.088;2023-11-21T14:08:26;11.90;99.90
23251;DHT22;11794;49.730;10.088;2023-11-21T14:10:57;11.70;99.90
23251;DHT22;11794;49.730;10.088;2023-11-21T14:13:25;11.50;99.90
23251;DHT22;11794;49.730;10.088;2023-11-21T14:15:51;11.40;99.90
23251;DHT22;11794;49.730;10.088;2023-11-21T14:18:24;11.40;99.90
23251;DHT22;11794;49.730;10.088;2023-11-21T14:20:57;11.40;99.90
23251;DHT22;11794;49.730;10.088;2023-11-21T14:23:22;11.40;99.90
23251;DHT22;11794;49.730;10.088;2023-11-21T14:25:48;11.40;99.90
23251;DHT22;11794;49.730;10.088;2023-11-21T14:28:15;11.30;99.90
23251;DHT22;11794;49.730;10.088;2023-11-21T14:30:41;11.20;99.90
23251;DHT22;11794;49.730;10.088;2023-11-21T14:33:07;11.10;99.90
23251;DHT22;11794;49.730;10.088;2023-11-21T14:35:35;11.00;99.90
23251;DHT22;11794;49.730;10.088;2023-11-21T14:38:00;10.90;99.90
23251;DHT22;11794;49.730;10.088;2023-11-21T14:40:28;10.80;99.90
23251;DHT22;11794;49.730;10.088;2023-11-21T14:42:59;10.80;99.90
23251;DHT22;11794;49.730;10.088;2023-11-21T14:45:25;10.70;99.90
23251;DHT22;11794;49.730;10.088;2023-11-21T14:47:51;10.60;99.90
23251;DHT22;11794;49.730;10.088;2023-11-21T14:50:41;10.50;99.90
23251;DHT22;11794;49.730;10.088;2023-11-21T14:53:08;10.40;99.90
23251;DHT22;11794;49.730;10.088;2023-11-21T14:55:34;10.40;99.90
23251;DHT22;11794;49.730;10.088;2023-11-21T14:58:20;10.40;99.90
23251;DHT22;11794;49.730;10.088;2023-11-21T15:01:00;10.30;99.90
23251;DHT22;11794;49.730;10.088;2023-11-21T15:03:27;10.20;99.90
23251;DHT22;11794;49.730;10.088;2023-11-21T15:05:56;10.20;99.90
23251;DHT22;11794;49.730;10.088;2023-11-21T15:08:22;10.00;99.90
23251;DHT22;11794;49.730;10.088;2023-11-21T15:10:53;9.90;99.90
23251;DHT22;11794;49.730;10.088;2023-11-21T15:13:20;9.80;99.90
23251;DHT22;11794;49.730;10.088;2023-11-21T15:15:47;9.80;99.90
23251;DHT22;11794;49.730;10.088;2023-11-21T15:18:12;9.80;99.90
23251;DHT22;11794;49.730;10.088;2023-11-21T15:20:41;9.70;99.90
23251;DHT22;11794;49.730;10.088;2023-11-21T15:23:07;9.70;99.90
23251;DHT22;11794;49.730;10.088;2023-11-21T15:25:33;9.60;99.90
23251;DHT22;11794;49.730;10.088;2023-11-21T15:28:00;9.50;99.90
23251;DHT22;11794;49.730;10.088;2023-11-21T15:30:25;9.50;99.90
23251;DHT22;11794;49.730;10.088;2023-11-21T15:32:52;9.50;99.90
23251;DHT22;11794;49.730;10.088;2023-11-21T15:35:22;9.40;99.90
23251;DHT22;11794;49.730;10.088;2023-11-21T15:37:48;9.30;99.90
23251;DHT22;11794;49.730;10.088;2023-11-21T15:40:13;9.20;99.90